sensor_id;sensor_type;location;lat;lon;timestamp;temperature;humidity
29731;DHT22;16639;51.488;0.152;2023-07-20T00:01:54;18.10;99.90
29731;DHT22;16639;51.488;0.152;2023-07-20T00:04:22;18.10;99.90
29731;DHT22;16639;51.488;0.152;2023-07-20T00:06:49;18.10;99.90
29731;DHT22;16639;51.488;0.152;2023-07-20T00:09:17;18.00;99.90
29731;DHT22;16639;51.488;0.152;2023-07-20T00:11:52;18.00;99.90
29731;DHT22;16639;51.488;0.152;2023-07-20T00:14:20;17.90;99.90
29731;DHT22;16639;51.488;0.152;2023-07-20T00:16:50;17.90;99.90
29731;DHT22;16639;51.488;0.152;2023-07-20T00:19:26;17.90;99.90
29731;DHT22;16639;51.488;0.152;2023-07-20T00:21:54;17.90;99.90
29731;DHT22;16639;51.488;0.152;2023-07-20T00:24:22;17.80;99.90
29731;DHT22;16639;51.488;0.152;2023-07-20T00:26:49;17.70;99.90
29731;DHT22;16639;51.488;0.152;2023-07-20T00:29:17;17.70;99.90
29731;DHT22;16639;51.488;0.152;2023-07-20T00:31:45;17.70;99.90
29731;DHT22;16639;51.488;0.152;2023-07-20T00:34:14;17.60;99.90
29731;DHT22;16639;51.488;0.152;2023-07-20T00:36:41;17.50;99.90
29731;DHT22;16639;51.488;0.152;2023-07-20T00:39:10;17.50;99.90
29731;DHT22;16639;51.488;0.152;2023-07-20T00:41:37;17.50;99.90
29731;DHT22;16639;51.488;0.152;2023-07-20T00:44:05;17.50;99.90
29731;DHT22;16639;51.488;0.152;2023-07-20T00:46:33;17.40;99.90
29731;DHT22;16639;51.488;0.152;2023-07-20T00:49:01;17.40;99.90
29731;DHT22;16639;51.488;0.152;2023-07-20T00:51:28;17.30;99.90
29731;DHT22;16639;51.488;0.152;2023-07-20T00:53:58;17.30;99.90
29731;DHT22;16639;51.488;0.152;2023-07-20T00:56:25;17.30;99.90
29731;DHT22;16639;51.488;0.152;2023-07-20T00:58:53;17.30;99.90
29731;DHT22;16639;51.488;0.152;2023-07-20T01:01:22;17.20;99.90
29731;DHT22;16639;51.488;0.152;2023-07-20T01:03:49;17.20;99.90
29731;DHT22;16639;51.488;0.152;2023-07-20T01:09:14;17.20;99.90
29731;DHT22;16639;51.488;0.152;2023-07-20T01:14:10;17.20;99.90
29731;DHT22;16639;51.488;0.152;2023-07-20T01:16:39;17.20;99.90
29731;DHT22;16639;51.488;0.152;2023-07-20T01:19:06;17.20;99.90
29731;DHT22;16639;51.488;0.152;2023-07-20T01:21:39;17.20;99.90
29731;DHT22;16639;51.488;0.152;2023-07-20T01:24:39;17.30;99.90
29731;DHT22;16639;51.488;0.152;2023-07-20T01:30:26;17.40;99.90
29731;DHT22;16639;51.488;0.152;2023-07-20T01:33:00;17.50;99.90
29731;DHT22;16639;51.488;0.152;2023-07-20T01:35:30;17.50;99.90
29731;DHT22;16639;51.488;0.152;2023-07-20T01:37:58;17.50;99.90
29731;DHT22;16639;51.488;0.152;2023-07-20T01:40:26;17.50;99.90
29731;DHT22;16639;51.488;0.152;2023-07-20T01:42:54;17.50;99.90
29731;DHT22;16639;51.488;0.152;2023-07-20T01:45:22;17.50;99.90
29731;DHT22;16639;51.488;0.152;2023-07-20T01:47:49;17.50;99.90
29731;DHT22;16639;51.488;0.152;2023-07-20T01:50:16;17.40;99.90
29731;DHT22;16639;51.488;0.152;2023-07-20T01:52:44;17.40;99.90
29731;DHT22;16639;51.488;0.152;2023-07-20T01:55:12;17.40;99.90
29731;DHT22;16639;51.488;0.152;2023-07-20T01:57:39;17.40;99.90
29731;DHT22;16639;51.488;0.152;2023-07-20T02:00:07;17.40;99.90
29731;DHT22;16639;51.488;0.152;2023-07-20T02:02:36;17.40;99.90
29731;DHT22;16639;51.488;0.152;2023-07-20T02:05:04;17.30;99.90
29731;DHT22;16639;51.488;0.152;2023-07-20T02:07:33;17.30;99.90
29731;DHT22;16639;51.488;0.152;2023-07-20T02:10:00;17.30;99.90
29731;DHT22;16639;51.488;0.152;2023-07-20T02:12:30;17.30;99.90
29731;DHT22;16639;51.488;0.152;2023-07-20T02:14:57;17.30;99.90
29731;DHT22;16639;51.488;0.152;2023-07-20T02:17:25;17.30;99.90
29731;DHT22;16639;51.488;0.152;2023-07-20T02:19:53;17.30;99.90
29731;DHT22;16639;51.488;0.152;2023-07-20T02:22:21;17.30;99.90
29731;DHT22;16639;51.488;0.152;2023-07-20T02:24:49;17.30;99.90
29731;DHT22;16639;51.488;0.152;2023-07-20T02:27:17;17.40;99.90
29731;DHT22;16639;51.488;0.152;2023-07-20T02:29:45;17.30;99.90
29731;DHT22;16639;51.488;0.152;2023-07-20T02:32:12;17.30;99.90
29731;DHT22;16639;51.488;0.152;2023-07-20T02:34:39;17.30;99.90
29731;DHT22;16639;51.488;0.152;2023-07-20T02:37:07;17.20;99.90
29731;DHT22;16639;51.488;0.152;2023-07-20T02:39:38;17.20;99.90
29731;DHT22;16639;51.488;0.152;2023-07-20T02:42:06;17.20;99.90
29731;DHT22;16639;51.488;0.152;2023-07-20T02:44:33;17.20;99.90
29731;DHT22;16639;51.488;0.152;2023-07-20T02:47:01;17.20;99.90
29731;DHT22;16639;51.488;0.152;2023-07-20T02:49:28;17.10;99.90
29731;DHT22;16639;51.488;0.152;2023-07-20T02:51:56;17.20;99.90
29731;DHT22;16639;51.488;0.152;2023-07-20T02:54:23;17.20;99.90
29731;DHT22;16639;51.488;0.152;2023-07-20T02:56:50;17.20;99.90
29731;DHT22;16639;51.488;0.152;2023-07-20T02:59:18;17.10;99.90
29731;DHT22;16639;51.488;0.152;2023-07-20T03:01:46;17.10;99.90
29731;DHT22;16639;51.488;0.152;2023-07-20T03:04:13;17.20;99.90
29731;DHT22;16639;51.488;0.152;2023-07-20T03:06:40;17.10;99.90
29731;DHT22;16639;51.488;0.152;2023-07-20T03:09:08;17.10;99.90
29731;DHT22;16639;51.488;0.152;2023-07-20T03:11:36;17.10;99.90
29731;DHT22;16639;51.488;0.152;2023-07-20T03:14:04;17.10;99.90
29731;DHT22;16639;51.488;0.152;2023-07-20T03:16:31;17.10;99.90
29731;DHT22;16639;51.488;0.152;2023-07-20T03:19:00;17.10;99.90
29731;DHT22;16639;51.488;0.152;2023-07-20T03:21:28;17.10;99.90
29731;DHT22;16639;51.488;0.152;2023-07-20T03:23:57;17.10;99.90
29731;DHT22;16639;51.488;0.152;2023-07-20T03:26:24;17.10;99.90
29731;DHT22;16639;51.488;0.152;2023-07-20T03:28:52;17.10;99.90
29731;DHT22;16639;51.488;0.152;2023-07-20T03:31:19;17.10;99.90
29731;DHT22;16639;51.488;0.152;2023-07-20T03:33:47;17.10;99.90
29731;DHT22;16639;51.488;0.152;2023-07-20T03:36:14;17.10;99.90
29731;DHT22;16639;51.488;0.152;2023-07-20T03:38:42;17.10;99.90
29731;DHT22;16639;51.488;0.152;2023-07-20T03:41:09;17.00;99.90
29731;DHT22;16639;51.488;0.152;2023-07-20T03:43:39;17.00;99.90
29731;DHT22;16639;51.488;0.152;2023-07-20T03:46:06;17.00;99.90
29731;DHT22;16639;51.488;0.152;2023-07-20T03:48:34;17.00;99.90
29731;DHT22;16639;51.488;0.152;2023-07-20T03:51:01;17.00;99.90
29731;DHT22;16639;51.488;0.152;2023-07-20T03:53:29;16.90;99.90
29731;DHT22;16639;51.488;0.152;2023-07-20T03:55:56;16.90;99.90
29731;DHT22;16639;51.488;0.152;2023-07-20T03:58:24;16.90;99.90
29731;DHT22;16639;51.488;0.152;2023-07-20T04:00:52;16.90;99.90
29731;DHT22;16639;51.488;0.152;2023-07-20T04:03:20;16.90;99.90
29731;DHT22;16639;51.488;0.152;2023-07-20T04:05:48;16.80;99.90
29731;DHT22;16639;51.488;0.152;2023-07-20T04:08:15;16.80;99.90
29731;DHT22;16639;51.488;0.152;2023-07-20T04:10:44;16.80;99.90
29731;DHT22;16639;51.488;0.152;2023-07-20T04:13:12;16.80;99.90
29731;DHT22;16639;51.488;0.152;2023-07-20T04:15:39;16.80;99.90
29731;DHT22;16639;51.488;0.152;2023-07-20T04:18:07;16.70;99.90
29731;DHT22;16639;51.488;0.152;2023-07-20T04:20:34;16.70;99.90
29731;DHT22;16639;51.488;0.152;2023-07-20T04:23:02;16.70;99.90
29731;DHT22;16639;51.488;0.152;2023-07-20T04:25:29;16.70;99.90
29731;DHT22;16639;51.488;0.152;2023-07-20T04:28:00;16.60;99.90
29731;DHT22;16639;51.488;0.152;2023-07-20T04:30:28;16.90;99.90
29731;DHT22;16639;51.488;0.152;2023-07-20T04:32:56;15.10;99.90
29731;DHT22;16639;51.488;0.152;2023-07-20T04:35:51;16.50;99.90
29731;DHT22;16639;51.488;0.152;2023-07-20T04:38:19;16.50;99.90
29731;DHT22;16639;51.488;0.152;2023-07-20T04:40:48;16.50;99.90
29731;DHT22;16639;51.488;0.152;2023-07-20T04:43:16;16.40;99.90
29731;DHT22;16639;51.488;0.152;2023-07-20T04:45:44;16.40;99.90
29731;DHT22;16639;51.488;0.152;2023-07-20T04:48:16;16.40;99.90
29731;DHT22;16639;51.488;0.152;2023-07-20T04:50:45;16.40;99.90
29731;DHT22;16639;51.488;0.152;2023-07-20T04:53:13;16.50;99.90
29731;DHT22;16639;51.488;0.152;2023-07-20T04:55:47;16.50;99.90
29731;DHT22;16639;51.488;0.152;2023-07-20T04:58:19;16.50;99.90
29731;DHT22;16639;51.488;0.152;2023-07-20T05:00:48;16.40;99.90
29731;DHT22;16639;51.488;0.152;2023-07-20T05:03:16;16.50;99.90
29731;DHT22;16639;51.488;0.152;2023-07-20T05:05:43;16.50;99.90
29731;DHT22;16639;51.488;0.152;2023-07-20T05:08:14;16.50;99.90
29731;DHT22;16639;51.488;0.152;2023-07-20T05:10:41;16.60;99.90
29731;DHT22;16639;51.488;0.152;2023-07-20T05:13:09;16.60;99.90
29731;DHT22;16639;51.488;0.152;2023-07-20T05:15:36;16.60;99.90
29731;DHT22;16639;51.488;0.152;2023-07-20T05:18:04;16.50;99.90
29731;DHT22;16639;51.488;0.152;2023-07-20T05:20:31;16.60;99.90
29731;DHT22;16639;51.488;0.152;2023-07-20T05:23:01;16.60;99.90
29731;DHT22;16639;51.488;0.152;2023-07-20T05:25:28;16.70;99.90
29731;DHT22;16639;51.488;0.152;2023-07-20T05:27:57;16.70;99.90
29731;DHT22;16639;51.488;0.152;2023-07-20T05:30:25;16.70;99.90
29731;DHT22;16639;51.488;0.152;2023-07-20T05:32:53;16.70;99.90
29731;DHT22;16639;51.488;0.152;2023-07-20T05:35:22;16.70;99.90
29731;DHT22;16639;51.488;0.152;2023-07-20T05:37:50;16.80;99.90
29731;DHT22;16639;51.488;0.152;2023-07-20T05:40:17;16.80;99.90
29731;DHT22;16639;51.488;0.152;2023-07-20T05:42:48;16.80;99.90
29731;DHT22;16639;51.488;0.152;2023-07-20T05:45:19;16.80;99.90
29731;DHT22;16639;51.488;0.152;2023-07-20T05:47:47;16.80;99.90
29731;DHT22;16639;51.488;0.152;2023-07-20T05:50:14;16.80;99.90
29731;DHT22;16639;51.488;0.152;2023-07-20T05:52:42;16.80;99.90
29731;DHT22;16639;51.488;0.152;2023-07-20T05:55:09;16.80;99.90
29731;DHT22;16639;51.488;0.152;2023-07-20T05:57:37;16.80;99.90
29731;DHT22;16639;51.488;0.152;2023-07-20T06:00:09;16.80;99.90
29731;DHT22;16639;51.488;0.152;2023-07-20T06:02:41;16.90;99.90
29731;DHT22;16639;51.488;0.152;2023-07-20T06:05:09;16.90;99.90
29731;DHT22;16639;51.488;0.152;2023-07-20T06:07:37;16.90;99.90
29731;DHT22;16639;51.488;0.152;2023-07-20T06:10:06;16.90;99.90
29731;DHT22;16639;51.488;0.152;2023-07-20T06:12:33;16.90;99.90
29731;DHT22;16639;51.488;0.152;2023-07-20T06:15:05;17.00;99.90
29731;DHT22;16639;51.488;0.152;2023-07-20T06:17:32;17.00;99.90
29731;DHT22;16639;51.488;0.152;2023-07-20T06:20:00;17.00;99.90
29731;DHT22;16639;51.488;0.152;2023-07-20T06:22:28;17.10;99.90
29731;DHT22;16639;51.488;0.152;2023-07-20T06:24:55;17.10;99.90
29731;DHT22;16639;51.488;0.152;2023-07-20T06:27:27;17.10;99.90
29731;DHT22;16639;51.488;0.152;2023-07-20T06:29:58;17.20;99.90
29731;DHT22;16639;51.488;0.152;2023-07-20T06:32:25;17.30;99.90
29731;DHT22;16639;51.488;0.152;2023-07-20T06:34:53;17.30;99.90
29731;DHT22;16639;51.488;0.152;2023-07-20T06:37:20;17.40;99.90
29731;DHT22;16639;51.488;0.152;2023-07-20T06:39:47;17.50;99.90
29731;DHT22;16639;51.488;0.152;2023-07-20T06:42:18;17.50;99.90
29731;DHT22;16639;51.488;0.152;2023-07-20T06:44:45;17.60;99.90
29731;DHT22;16639;51.488;0.152;2023-07-20T06:47:12;17.70;99.90
29731;DHT22;16639;51.488;0.152;2023-07-20T06:49:40;17.80;99.90
29731;DHT22;16639;51.488;0.152;2023-07-20T06:52:08;17.80;99.90
29731;DHT22;16639;51.488;0.152;2023-07-20T06:54:35;17.80;99.90
29731;DHT22;16639;51.488;0.152;2023-07-20T06:57:04;17.90;99.90
29731;DHT22;16639;51.488;0.152;2023-07-20T06:59:35;17.90;99.90
29731;DHT22;16639;51.488;0.152;2023-07-20T07:02:08;17.90;99.90
29731;DHT22;16639;51.488;0.152;2023-07-20T07:04:42;17.90;99.90
29731;DHT22;16639;51.488;0.152;2023-07-20T07:07:09;17.80;99.90
29731;DHT22;16639;51.488;0.152;2023-07-20T07:09:37;17.80;99.90
29731;DHT22;16639;51.488;0.152;2023-07-20T07:12:05;17.80;99.90
29731;DHT22;16639;51.488;0.152;2023-07-20T07:14:32;17.80;99.90
29731;DHT22;16639;51.488;0.152;2023-07-20T07:17:00;17.80;99.90
29731;DHT22;16639;51.488;0.152;2023-07-20T07:19:31;17.80;99.90
29731;DHT22;16639;51.488;0.152;2023-07-20T07:21:59;17.80;99.90
29731;DHT22;16639;51.488;0.152;2023-07-20T07:24:27;17.80;99.90
29731;DHT22;16639;51.488;0.152;2023-07-20T07:27:01;17.70;99.90
29731;DHT22;16639;51.488;0.152;2023-07-20T07:29:28;17.80;99.90
29731;DHT22;16639;51.488;0.152;2023-07-20T07:31:56;17.80;99.90
29731;DHT22;16639;51.488;0.152;2023-07-20T07:34:23;17.80;99.90
29731;DHT22;16639;51.488;0.152;2023-07-20T07:36:51;17.70;99.90
29731;DHT22;16639;51.488;0.152;2023-07-20T07:39:18;17.60;99.90
29731;DHT22;16639;51.488;0.152;2023-07-20T07:41:49;17.60;99.90
29731;DHT22;16639;51.488;0.152;2023-07-20T07:44:17;17.70;99.90
29731;DHT22;16639;51.488;0.152;2023-07-20T07:46:45;17.70;99.90
29731;DHT22;16639;51.488;0.152;2023-07-20T07:49:12;17.70;99.90
29731;DHT22;16639;51.488;0.152;2023-07-20T07:51:41;17.60;99.90
29731;DHT22;16639;51.488;0.152;2023-07-20T07:54:09;17.60;99.90
29731;DHT22;16639;51.488;0.152;2023-07-20T07:56:36;17.60;99.90
29731;DHT22;16639;51.488;0.152;2023-07-20T07:59:03;17.60;99.90
29731;DHT22;16639;51.488;0.152;2023-07-20T08:01:31;17.70;99.90
29731;DHT22;16639;51.488;0.152;2023-07-20T08:03:59;17.60;99.90
29731;DHT22;16639;51.488;0.152;2023-07-20T08:06:26;17.60;99.90
29731;DHT22;16639;51.488;0.152;2023-07-20T08:08:55;17.60;99.90
29731;DHT22;16639;51.488;0.152;2023-07-20T08:11:24;17.60;99.90
29731;DHT22;16639;51.488;0.152;2023-07-20T08:13:51;17.60;99.90
29731;DHT22;16639;51.488;0.152;2023-07-20T08:16:19;17.70;99.90
29731;DHT22;16639;51.488;0.152;2023-07-20T08:18:46;17.70;99.90
29731;DHT22;16639;51.488;0.152;2023-07-20T08:21:14;17.70;99.90
29731;DHT22;16639;51.488;0.152;2023-07-20T08:23:42;17.80;99.90
29731;DHT22;16639;51.488;0.152;2023-07-20T08:26:10;17.80;99.90
29731;DHT22;16639;51.488;0.152;2023-07-20T08:28:38;17.80;99.90
29731;DHT22;16639;51.488;0.152;2023-07-20T08:31:06;17.80;99.90
29731;DHT22;16639;51.488;0.152;2023-07-20T08:33:36;17.90;99.90
29731;DHT22;16639;51.488;0.152;2023-07-20T08:36:03;17.90;99.90
29731;DHT22;16639;51.488;0.152;2023-07-20T08:38:33;17.90;99.90
29731;DHT22;16639;51.488;0.152;2023-07-20T08:41:00;17.90;99.90
29731;DHT22;16639;51.488;0.152;2023-07-20T08:43:30;18.00;99.90
29731;DHT22;16639;51.488;0.152;2023-07-20T08:45:58;18.40;99.90
29731;DHT22;16639;51.488;0.152;2023-07-20T08:48:27;18.10;99.90
29731;DHT22;16639;51.488;0.152;2023-07-20T08:50:58;18.30;99.90
29731;DHT22;16639;51.488;0.152;2023-07-20T08:53:28;18.40;99.90
29731;DHT22;16639;51.488;0.152;2023-07-20T08:55:56;18.50;99.90
29731;DHT22;16639;51.488;0.152;2023-07-20T08:58:25;18.50;99.90
29731;DHT22;16639;51.488;0.152;2023-07-20T09:00:54;18.60;99.90
29731;DHT22;16639;51.488;0.152;2023-07-20T09:03:22;18.60;99.90
29731;DHT22;16639;51.488;0.152;2023-07-20T09:05:50;18.70;99.90
29731;DHT22;16639;51.488;0.152;2023-07-20T09:08:17;18.60;99.90
29731;DHT22;16639;51.488;0.152;2023-07-20T09:10:45;18.70;99.90
29731;DHT22;16639;51.488;0.152;2023-07-20T09:13:16;18.60;99.90
29731;DHT22;16639;51.488;0.152;2023-07-20T09:15:48;18.60;99.90
29731;DHT22;16639;51.488;0.152;2023-07-20T09:18:24;18.90;99.90
29731;DHT22;16639;51.488;0.152;2023-07-20T09:20:52;18.60;99.90
29731;DHT22;16639;51.488;0.152;2023-07-20T09:23:20;18.60;99.90
29731;DHT22;16639;51.488;0.152;2023-07-20T09:25:57;18.60;99.90
29731;DHT22;16639;51.488;0.152;2023-07-20T09:28:25;18.60;99.90
29731;DHT22;16639;51.488;0.152;2023-07-20T09:30:54;18.60;99.90
29731;DHT22;16639;51.488;0.152;2023-07-20T09:33:24;18.60;99.90
29731;DHT22;16639;51.488;0.152;2023-07-20T09:36:02;18.60;99.90
29731;DHT22;16639;51.488;0.152;2023-07-20T09:38:50;18.60;99.90
29731;DHT22;16639;51.488;0.152;2023-07-20T09:41:21;18.60;99.90
29731;DHT22;16639;51.488;0.152;2023-07-20T09:43:51;18.60;99.90
29731;DHT22;16639;51.488;0.152;2023-07-20T09:46:20;18.60;99.90
29731;DHT22;16639;51.488;0.152;2023-07-20T09:48:54;18.70;99.90
29731;DHT22;16639;51.488;0.152;2023-07-20T09:51:24;18.70;99.90
29731;DHT22;16639;51.488;0.152;2023-07-20T09:53:53;18.70;99.90
29731;DHT22;16639;51.488;0.152;2023-07-20T09:56:22;18.80;99.90
29731;DHT22;16639;51.488;0.152;2023-07-20T09:58:53;18.80;99.90
29731;DHT22;16639;51.488;0.152;2023-07-20T10:01:21;18.90;99.90
29731;DHT22;16639;51.488;0.152;2023-07-20T10:03:54;18.90;99.90
29731;DHT22;16639;51.488;0.152;2023-07-20T10:06:24;19.00;99.90
29731;DHT22;16639;51.488;0.152;2023-07-20T10:09:00;19.00;99.90
29731;DHT22;16639;51.488;0.152;2023-07-20T10:11:35;19.10;99.90
29731;DHT22;16639;51.488;0.152;2023-07-20T10:14:04;19.10;99.90
29731;DHT22;16639;51.488;0.152;2023-07-20T10:16:45;19.10;99.90
29731;DHT22;16639;51.488;0.152;2023-07-20T10:22:03;19.20;99.90
29731;DHT22;16639;51.488;0.152;2023-07-20T10:24:37;19.30;99.90
29731;DHT22;16639;51.488;0.152;2023-07-20T10:27:06;19.30;99.90
29731;DHT22;16639;51.488;0.152;2023-07-20T10:29:34;19.40;99.90
29731;DHT22;16639;51.488;0.152;2023-07-20T10:32:02;19.60;99.90
29731;DHT22;16639;51.488;0.152;2023-07-20T10:34:30;19.60;99.90
29731;DHT22;16639;51.488;0.152;2023-07-20T10:36:57;19.30;99.90
29731;DHT22;16639;51.488;0.152;2023-07-20T10:39:25;19.60;99.90
29731;DHT22;16639;51.488;0.152;2023-07-20T10:42:11;19.50;99.90
29731;DHT22;16639;51.488;0.152;2023-07-20T10:44:39;19.50;99.90
29731;DHT22;16639;51.488;0.152;2023-07-20T10:47:12;19.60;99.90
29731;DHT22;16639;51.488;0.152;2023-07-20T10:49:59;19.60;99.90
29731;DHT22;16639;51.488;0.152;2023-07-20T10:52:37;19.60;99.90
29731;DHT22;16639;51.488;0.152;2023-07-20T10:55:15;19.60;99.90
29731;DHT22;16639;51.488;0.152;2023-07-20T10:57:43;19.70;99.90
29731;DHT22;16639;51.488;0.152;2023-07-20T11:00:31;19.70;99.90
29731;DHT22;16639;51.488;0.152;2023-07-20T11:02:58;19.80;99.90
29731;DHT22;16639;51.488;0.152;2023-07-20T11:08:37;20.00;99.90
29731;DHT22;16639;51.488;0.152;2023-07-20T11:11:25;20.00;99.90
29731;DHT22;16639;51.488;0.152;2023-07-20T11:13:55;20.10;99.90
29731;DHT22;16639;51.488;0.152;2023-07-20T11:19:04;20.30;99.90
29731;DHT22;16639;51.488;0.152;2023-07-20T11:21:37;20.30;99.90
29731;DHT22;16639;51.488;0.152;2023-07-20T11:24:18;20.30;99.90
29731;DHT22;16639;51.488;0.152;2023-07-20T11:26:48;20.20;99.90
29731;DHT22;16639;51.488;0.152;2023-07-20T11:29:23;20.20;99.90
29731;DHT22;16639;51.488;0.152;2023-07-20T11:32:00;20.20;99.90
29731;DHT22;16639;51.488;0.152;2023-07-20T11:34:30;20.80;99.90
29731;DHT22;16639;51.488;0.152;2023-07-20T11:36:59;20.20;99.90
29731;DHT22;16639;51.488;0.152;2023-07-20T11:39:29;20.20;99.90
29731;DHT22;16639;51.488;0.152;2023-07-20T11:41:57;20.20;99.90
29731;DHT22;16639;51.488;0.152;2023-07-20T11:44:29;20.30;99.90
29731;DHT22;16639;51.488;0.152;2023-07-20T11:47:01;20.40;99.90
29731;DHT22;16639;51.488;0.152;2023-07-20T11:49:40;20.40;99.90
29731;DHT22;16639;51.488;0.152;2023-07-20T11:52:10;20.40;99.90
29731;DHT22;16639;51.488;0.152;2023-07-20T11:54:39;20.40;99.90
29731;DHT22;16639;51.488;0.152;2023-07-20T11:57:36;20.40;99.90
29731;DHT22;16639;51.488;0.152;2023-07-20T12:00:04;20.30;99.90
29731;DHT22;16639;51.488;0.152;2023-07-20T12:02:38;20.00;99.90
29731;DHT22;16639;51.488;0.152;2023-07-20T12:05:08;20.20;99.90
29731;DHT22;16639;51.488;0.152;2023-07-20T12:07:36;20.20;99.90
29731;DHT22;16639;51.488;0.152;2023-07-20T12:10:09;20.30;99.90
29731;DHT22;16639;51.488;0.152;2023-07-20T12:12:42;20.40;99.90
29731;DHT22;16639;51.488;0.152;2023-07-20T12:17:53;20.40;99.90
29731;DHT22;16639;51.488;0.152;2023-07-20T12:20:26;20.50;99.90
29731;DHT22;16639;51.488;0.152;2023-07-20T12:23:00;20.50;99.90
29731;DHT22;16639;51.488;0.152;2023-07-20T12:25:46;20.60;99.90
29731;DHT22;16639;51.488;0.152;2023-07-20T12:28:17;20.60;99.90
29731;DHT22;16639;51.488;0.152;2023-07-20T12:30:45;20.60;99.90
29731;DHT22;16639;51.488;0.152;2023-07-20T12:33:25;20.70;99.90
29731;DHT22;16639;51.488;0.152;2023-07-20T12:35:52;20.70;99.90
29731;DHT22;16639;51.488;0.152;2023-07-20T12:38:23;20.70;99.90
29731;DHT22;16639;51.488;0.152;2023-07-20T12:40:51;20.90;99.90
29731;DHT22;16639;51.488;0.152;2023-07-20T12:43:18;21.00;99.90
29731;DHT22;16639;51.488;0.152;2023-07-20T12:45:46;21.10;99.90
29731;DHT22;16639;51.488;0.152;2023-07-20T12:48:14;21.20;99.90
29731;DHT22;16639;51.488;0.152;2023-07-20T12:50:42;21.30;99.90
29731;DHT22;16639;51.488;0.152;2023-07-20T12:53:09;21.30;99.90
29731;DHT22;16639;51.488;0.152;2023-07-20T12:55:38;21.30;99.90
29731;DHT22;16639;51.488;0.152;2023-07-20T12:58:07;21.30;99.90
29731;DHT22;16639;51.488;0.152;2023-07-20T13:00:34;21.20;99.90
29731;DHT22;16639;51.488;0.152;2023-07-20T13:03:02;21.20;99.90
29731;DHT22;16639;51.488;0.152;2023-07-20T13:05:36;21.10;99.90
29731;DHT22;16639;51.488;0.152;2023-07-20T13:08:06;21.10;99.90
29731;DHT22;16639;51.488;0.152;2023-07-20T13:10:37;21.30;99.90
29731;DHT22;16639;51.488;0.152;2023-07-20T13:13:06;21.20;99.90
29731;DHT22;16639;51.488;0.152;2023-07-20T13:15:41;21.30;99.90
29731;DHT22;16639;51.488;0.152;2023-07-20T13:18:12;21.40;99.90
29731;DHT22;16639;51.488;0.152;2023-07-20T13:20:39;21.40;99.90
29731;DHT22;16639;51.488;0.152;2023-07-20T13:23:07;21.40;99.90
29731;DHT22;16639;51.488;0.152;2023-07-20T13:25:35;21.40;99.90
29731;DHT22;16639;51.488;0.152;2023-07-20T13:28:02;21.40;99.90
29731;DHT22;16639;51.488;0.152;2023-07-20T13:30:30;21.40;99.60
29731;DHT22;16639;51.488;0.152;2023-07-20T13:32:58;21.50;99.30
29731;DHT22;16639;51.488;0.152;2023-07-20T13:35:28;21.70;99.90
29731;DHT22;16639;51.488;0.152;2023-07-20T13:38:17;21.80;99.90
29731;DHT22;16639;51.488;0.152;2023-07-20T13:40:46;21.90;98.60
29731;DHT22;16639;51.488;0.152;2023-07-20T13:43:13;21.90;97.90
29731;DHT22;16639;51.488;0.152;2023-07-20T13:45:40;21.80;96.60
29731;DHT22;16639;51.488;0.152;2023-07-20T13:48:08;21.70;96.60
29731;DHT22;16639;51.488;0.152;2023-07-20T13:50:35;21.80;96.80
29731;DHT22;16639;51.488;0.152;2023-07-20T13:53:06;21.80;97.50
29731;DHT22;16639;51.488;0.152;2023-07-20T13:55:36;21.80;98.80
29731;DHT22;16639;51.488;0.152;2023-07-20T13:58:08;21.90;99.90
29731;DHT22;16639;51.488;0.152;2023-07-20T14:00:39;22.00;98.60
29731;DHT22;16639;51.488;0.152;2023-07-20T14:03:08;22.00;98.90
29731;DHT22;16639;51.488;0.152;2023-07-20T14:05:39;22.00;97.50
29731;DHT22;16639;51.488;0.152;2023-07-20T14:08:10;22.00;98.60
29731;DHT22;16639;51.488;0.152;2023-07-20T14:10:37;22.10;99.90
29731;DHT22;16639;51.488;0.152;2023-07-20T14:13:08;22.20;97.50
29731;DHT22;16639;51.488;0.152;2023-07-20T14:15:35;22.10;96.90
29731;DHT22;16639;51.488;0.152;2023-07-20T14:18:03;22.10;96.90
29731;DHT22;16639;51.488;0.152;2023-07-20T14:20:31;22.10;98.80
29731;DHT22;16639;51.488;0.152;2023-07-20T14:22:58;22.10;97.50
29731;DHT22;16639;51.488;0.152;2023-07-20T14:25:25;22.10;96.70
29731;DHT22;16639;51.488;0.152;2023-07-20T14:27:55;22.10;96.70
29731;DHT22;16639;51.488;0.152;2023-07-20T14:30:23;22.00;96.60
29731;DHT22;16639;51.488;0.152;2023-07-20T14:32:51;21.90;96.20
29731;DHT22;16639;51.488;0.152;2023-07-20T14:35:18;21.90;99.10
29731;DHT22;16639;51.488;0.152;2023-07-20T14:37:47;22.00;98.50
29731;DHT22;16639;51.488;0.152;2023-07-20T14:40:14;22.00;96.50
29731;DHT22;16639;51.488;0.152;2023-07-20T14:42:42;22.20;97.10
29731;DHT22;16639;51.488;0.152;2023-07-20T14:45:09;22.30;94.30
29731;DHT22;16639;51.488;0.152;2023-07-20T14:47:36;22.30;94.90
29731;DHT22;16639;51.488;0.152;2023-07-20T14:50:06;22.30;94.80
29731;DHT22;16639;51.488;0.152;2023-07-20T14:52:33;22.30;95.60
29731;DHT22;16639;51.488;0.152;2023-07-20T14:55:01;22.30;94.90
29731;DHT22;16639;51.488;0.152;2023-07-20T14:57:30;22.30;94.10
29731;DHT22;16639;51.488;0.152;2023-07-20T14:59:58;22.30;94.50
29731;DHT22;16639;51.488;0.152;2023-07-20T15:02:26;22.30;94.90
29731;DHT22;16639;51.488;0.152;2023-07-20T15:04:54;22.30;94.80
29731;DHT22;16639;51.488;0.152;2023-07-20T15:07:22;22.40;97.60
29731;DHT22;16639;51.488;0.152;2023-07-20T15:09:50;22.40;96.80
29731;DHT22;16639;51.488;0.152;2023-07-20T15:12:18;22.50;98.00
29731;DHT22;16639;51.488;0.152;2023-07-20T15:15:02;22.50;94.40
29731;DHT22;16639;51.488;0.152;2023-07-20T15:17:32;22.50;93.80
29731;DHT22;16639;51.488;0.152;2023-07-20T15:20:00;22.50;93.40
29731;DHT22;16639;51.488;0.152;2023-07-20T15:22:35;22.50;97.00
29731;DHT22;16639;51.488;0.152;2023-07-20T15:25:03;22.50;95.80
29731;DHT22;16639;51.488;0.152;2023-07-20T15:27:32;22.40;90.60
29731;DHT22;16639;51.488;0.152;2023-07-20T15:30:01;22.50;92.40
29731;DHT22;16639;51.488;0.152;2023-07-20T15:32:29;22.50;91.10
29731;DHT22;16639;51.488;0.152;2023-07-20T15:35:19;22.70;91.40
29731;DHT22;16639;51.488;0.152;2023-07-20T15:37:46;22.50;92.70
29731;DHT22;16639;51.488;0.152;2023-07-20T15:40:13;22.60;90.00
29731;DHT22;16639;51.488;0.152;2023-07-20T15:42:41;22.60;89.70
29731;DHT22;16639;51.488;0.152;2023-07-20T15:45:09;22.60;87.50
29731;DHT22;16639;51.488;0.152;2023-07-20T15:47:36;22.70;92.00
29731;DHT22;16639;51.488;0.152;2023-07-20T15:50:05;22.60;93.40
29731;DHT22;16639;51.488;0.152;2023-07-20T15:52:33;22.60;93.50
29731;DHT22;16639;51.488;0.152;2023-07-20T15:55:01;22.60;91.60
29731;DHT22;16639;51.488;0.152;2023-07-20T15:57:33;22.50;90.40
29731;DHT22;16639;51.488;0.152;2023-07-20T16:00:25;22.60;90.60
29731;DHT22;16639;51.488;0.152;2023-07-20T16:02:53;22.50;88.60
29731;DHT22;16639;51.488;0.152;2023-07-20T16:05:20;22.50;89.40